sensor_id;sensor_type;location;lat;lon;timestamp;temperature;humidity
19646;DHT22;9971;52.446;13.452;2023-05-29T00:01:33;16.30;99.90
19646;DHT22;9971;52.446;13.452;2023-05-29T00:06:36;16.10;99.90
19646;DHT22;9971;52.446;13.452;2023-05-29T00:11:38;16.00;99.90
19646;DHT22;9971;52.446;13.452;2023-05-29T00:16:40;15.90;99.90
19646;DHT22;9971;52.446;13.452;2023-05-29T00:21:44;15.80;99.90
19646;DHT22;9971;52.446;13.452;2023-05-29T00:26:46;15.70;99.90
19646;DHT22;9971;52.446;13.452;2023-05-29T00:31:49;15.70;99.90
19646;DHT22;9971;52.446;13.452;2023-05-29T00:36:51;15.60;99.90
19646;DHT22;9971;52.446;13.452;2023-05-29T00:41:53;15.50;99.90
19646;DHT22;9971;52.446;13.452;2023-05-29T00:46:56;15.40;99.90
19646;DHT22;9971;52.446;13.452;2023-05-29T00:51:58;15.40;99.90
19646;DHT22;9971;52.446;13.452;2023-05-29T00:57:00;15.30;99.90
19646;DHT22;9971;52.446;13.452;2023-05-29T01:02:02;15.40;99.90
19646;DHT22;9971;52.446;13.452;2023-05-29T01:07:04;15.30;99.90
19646;DHT22;9971;52.446;13.452;2023-05-29T01:12:23;15.30;99.90
19646;DHT22;9971;52.446;13.452;2023-05-29T01:17:30;15.30;99.90
19646;DHT22;9971;52.446;13.452;2023-05-29T01:22:54;15.20;99.90
19646;DHT22;9971;52.446;13.452;2023-05-29T01:27:53;15.30;99.90
19646;DHT22;9971;52.446;13.452;2023-05-29T01:32:56;15.30;99.90
19646;DHT22;9971;52.446;13.452;2023-05-29T01:37:59;15.30;99.90
19646;DHT22;9971;52.446;13.452;2023-05-29T01:43:01;15.30;99.90
19646;DHT22;9971;52.446;13.452;2023-05-29T01:48:03;15.20;99.90
19646;DHT22;9971;52.446;13.452;2023-05-29T01:53:06;15.10;99.90
19646;DHT22;9971;52.446;13.452;2023-05-29T01:58:08;15.10;99.90
19646;DHT22;9971;52.446;13.452;2023-05-29T02:03:11;15.00;99.90
19646;DHT22;9971;52.446;13.452;2023-05-29T02:08:13;15.00;99.90
19646;DHT22;9971;52.446;13.452;2023-05-29T02:13:15;14.90;99.90
19646;DHT22;9971;52.446;13.452;2023-05-29T02:18:19;14.90;99.90
19646;DHT22;9971;52.446;13.452;2023-05-29T02:23:21;14.80;99.90
19646;DHT22;9971;52.446;13.452;2023-05-29T02:28:23;14.70;99.90
19646;DHT22;9971;52.446;13.452;2023-05-29T02:33:26;14.70;99.90
19646;DHT22;9971;52.446;13.452;2023-05-29T02:38:28;14.70;99.90
19646;DHT22;9971;52.446;13.452;2023-05-29T02:43:30;14.70;99.90
19646;DHT22;9971;52.446;13.452;2023-05-29T02:48:33;14.60;99.90
19646;DHT22;9971;52.446;13.452;2023-05-29T02:53:35;14.50;99.90
19646;DHT22;9971;52.446;13.452;2023-05-29T02:58:38;14.40;99.90
19646;DHT22;9971;52.446;13.452;2023-05-29T03:03:40;14.30;99.90
19646;DHT22;9971;52.446;13.452;2023-05-29T03:08:43;14.30;99.90
19646;DHT22;9971;52.446;13.452;2023-05-29T03:13:45;14.30;99.90
19646;DHT22;9971;52.446;13.452;2023-05-29T03:18:47;14.40;99.90
19646;DHT22;9971;52.446;13.452;2023-05-29T03:23:50;14.40;99.90
19646;DHT22;9971;52.446;13.452;2023-05-29T03:28:52;14.30;99.90
19646;DHT22;9971;52.446;13.452;2023-05-29T03:33:54;14.30;99.90
19646;DHT22;9971;52.446;13.452;2023-05-29T03:38:57;14.30;99.90
19646;DHT22;9971;52.446;13.452;2023-05-29T03:44:00;14.40;99.90
19646;DHT22;9971;52.446;13.452;2023-05-29T03:49:02;14.40;99.90
19646;DHT22;9971;52.446;13.452;2023-05-29T03:54:05;14.50;99.90
19646;DHT22;9971;52.446;13.452;2023-05-29T03:59:07;14.60;99.90
19646;DHT22;9971;52.446;13.452;2023-05-29T04:04:09;14.60;99.90
19646;DHT22;9971;52.446;13.452;2023-05-29T04:09:12;14.70;99.90
19646;DHT22;9971;52.446;13.452;2023-05-29T04:14:14;14.80;99.90
19646;DHT22;9971;52.446;13.452;2023-05-29T04:19:16;14.90;99.90
19646;DHT22;9971;52.446;13.452;2023-05-29T04:24:19;15.00;99.90
19646;DHT22;9971;52.446;13.452;2023-05-29T04:29:21;15.10;99.90
19646;DHT22;9971;52.446;13.452;2023-05-29T04:34:23;15.10;99.90
19646;DHT22;9971;52.446;13.452;2023-05-29T04:39:25;15.20;99.90
19646;DHT22;9971;52.446;13.452;2023-05-29T04:44:27;15.30;99.90
19646;DHT22;9971;52.446;13.452;2023-05-29T04:49:30;15.50;99.90
19646;DHT22;9971;52.446;13.452;2023-05-29T04:54:33;15.60;99.90
19646;DHT22;9971;52.446;13.452;2023-05-29T04:59:35;15.70;99.90
19646;DHT22;9971;52.446;13.452;2023-05-29T05:04:37;15.90;99.90
19646;DHT22;9971;52.446;13.452;2023-05-29T05:09:39;16.00;99.90
19646;DHT22;9971;52.446;13.452;2023-05-29T05:14:42;16.20;99.90
19646;DHT22;9971;52.446;13.452;2023-05-29T05:19:44;16.30;99.90
19646;DHT22;9971;52.446;13.452;2023-05-29T05:24:47;16.50;99.90
19646;DHT22;9971;52.446;13.452;2023-05-29T05:29:49;16.60;99.90
19646;DHT22;9971;52.446;13.452;2023-05-29T05:34:52;16.80;99.90
19646;DHT22;9971;52.446;13.452;2023-05-29T05:39:54;16.80;99.90
19646;DHT22;9971;52.446;13.452;2023-05-29T05:44:56;17.00;99.90
19646;DHT22;9971;52.446;13.452;2023-05-29T05:49:59;17.10;99.90
19646;DHT22;9971;52.446;13.452;2023-05-29T05:55:01;17.20;99.90
19646;DHT22;9971;52.446;13.452;2023-05-29T06:00:04;17.30;99.90
19646;DHT22;9971;52.446;13.452;2023-05-29T06:05:09;17.50;99.90
19646;DHT22;9971;52.446;13.452;2023-05-29T06:10:11;17.60;99.90
19646;DHT22;9971;52.446;13.452;2023-05-29T06:15:14;17.70;99.90
19646;DHT22;9971;52.446;13.452;2023-05-29T06:20:16;17.70;99.90
19646;DHT22;9971;52.446;13.452;2023-05-29T06:25:18;17.90;99.90
19646;DHT22;9971;52.446;13.452;2023-05-29T06:30:21;18.00;99.90
19646;DHT22;9971;52.446;13.452;2023-05-29T06:35:24;18.10;99.90
19646;DHT22;9971;52.446;13.452;2023-05-29T06:40:26;18.20;99.90
19646;DHT22;9971;52.446;13.452;2023-05-29T06:45:29;18.40;99.90
19646;DHT22;9971;52.446;13.452;2023-05-29T06:50:32;18.50;99.90
19646;DHT22;9971;52.446;13.452;2023-05-29T06:55:35;18.50;99.90
19646;DHT22;9971;52.446;13.452;2023-05-29T07:00:37;18.60;99.90
19646;DHT22;9971;52.446;13.452;2023-05-29T07:05:40;18.70;99.90
19646;DHT22;9971;52.446;13.452;2023-05-29T07:10:42;18.80;99.90
19646;DHT22;9971;52.446;13.452;2023-05-29T07:15:45;18.90;99.90
19646;DHT22;9971;52.446;13.452;2023-05-29T07:20:48;19.00;99.90
19646;DHT22;9971;52.446;13.452;2023-05-29T07:41:54;19.50;97.70
19646;DHT22;9971;52.446;13.452;2023-05-29T07:46:58;19.70;97.70
19646;DHT22;9971;52.446;13.452;2023-05-29T07:52:02;19.90;96.20
19646;DHT22;9971;52.446;13.452;2023-05-29T07:57:05;20.20;95.70
19646;DHT22;9971;52.446;13.452;2023-05-29T08:02:11;20.30;94.30
19646;DHT22;9971;52.446;13.452;2023-05-29T08:07:18;20.50;94.70
19646;DHT22;9971;52.446;13.452;2023-05-29T08:12:23;20.80;93.80
19646;DHT22;9971;52.446;13.452;2023-05-29T08:17:25;21.10;92.40
19646;DHT22;9971;52.446;13.452;2023-05-29T08:22:30;21.10;92.60
19646;DHT22;9971;52.446;13.452;2023-05-29T08:27:41;21.20;92.10
19646;DHT22;9971;52.446;13.452;2023-05-29T08:32:45;21.10;91.40
19646;DHT22;9971;52.446;13.452;2023-05-29T08:37:51;21.00;91.20
19646;DHT22;9971;52.446;13.452;2023-05-29T08:42:57;21.00;90.50
19646;DHT22;9971;52.446;13.452;2023-05-29T08:48:00;21.60;90.80
19646;DHT22;9971;52.446;13.452;2023-05-29T08:53:04;22.00;88.50
19646;DHT22;9971;52.446;13.452;2023-05-29T08:58:20;22.00;89.90
19646;DHT22;9971;52.446;13.452;2023-05-29T09:03:23;22.30;88.50
19646;DHT22;9971;52.446;13.452;2023-05-29T09:08:27;22.50;84.90
19646;DHT22;9971;52.446;13.452;2023-05-29T09:13:29;22.60;83.40
19646;DHT22;9971;52.446;13.452;2023-05-29T09:18:36;22.60;85.20
19646;DHT22;9971;52.446;13.452;2023-05-29T09:23:42;22.90;84.30
19646;DHT22;9971;52.446;13.452;2023-05-29T09:28:45;23.10;83.00
19646;DHT22;9971;52.446;13.452;2023-05-29T09:33:48;23.20;83.10
19646;DHT22;9971;52.446;13.452;2023-05-29T09:38:51;23.30;82.60
19646;DHT22;9971;52.446;13.452;2023-05-29T09:43:54;23.30;82.00
19646;DHT22;9971;52.446;13.452;2023-05-29T09:49:00;23.40;82.30
19646;DHT22;9971;52.446;13.452;2023-05-29T09:53:58;23.60;82.30
19646;DHT22;9971;52.446;13.452;2023-05-29T09:59:01;23.50;80.80
19646;DHT22;9971;52.446;13.452;2023-05-29T10:04:03;23.10;82.40
19646;DHT22;9971;52.446;13.452;2023-05-29T10:09:07;23.60;80.70
19646;DHT22;9971;52.446;13.452;2023-05-29T10:14:08;23.60;79.20
19646;DHT22;9971;52.446;13.452;2023-05-29T10:19:12;23.50;79.10
19646;DHT22;9971;52.446;13.452;2023-05-29T10:24:12;23.30;79.00
19646;DHT22;9971;52.446;13.452;2023-05-29T10:29:19;23.60;77.00
19646;DHT22;9971;52.446;13.452;2023-05-29T10:34:26;23.80;76.90
19646;DHT22;9971;52.446;13.452;2023-05-29T10:39:26;24.00;76.30
19646;DHT22;9971;52.446;13.452;2023-05-29T10:44:39;23.90;73.40
19646;DHT22;9971;52.446;13.452;2023-05-29T10:49:48;23.60;76.50
19646;DHT22;9971;52.446;13.452;2023-05-29T10:54:49;23.50;76.20
19646;DHT22;9971;52.446;13.452;2023-05-29T10:59:45;23.40;76.30
19646;DHT22;9971;52.446;13.452;2023-05-29T11:05:04;23.50;74.10
19646;DHT22;9971;52.446;13.452;2023-05-29T11:09:50;23.30;71.20
19646;DHT22;9971;52.446;13.452;2023-05-29T11:14:54;23.80;71.80
19646;DHT22;9971;52.446;13.452;2023-05-29T11:19:56;24.80;70.50
19646;DHT22;9971;52.446;13.452;2023-05-29T11:24:58;24.50;68.30
19646;DHT22;9971;52.446;13.452;2023-05-29T11:30:00;24.10;69.40
19646;DHT22;9971;52.446;13.452;2023-05-29T11:35:05;24.00;68.30
19646;DHT22;9971;52.446;13.452;2023-05-29T11:40:08;24.40;68.00
19646;DHT22;9971;52.446;13.452;2023-05-29T11:45:16;24.70;63.30
19646;DHT22;9971;52.446;13.452;2023-05-29T11:50:21;25.10;65.20
19646;DHT22;9971;52.446;13.452;2023-05-29T11:55:23;25.10;63.50
19646;DHT22;9971;52.446;13.452;2023-05-29T12:00:25;25.40;63.90
19646;DHT22;9971;52.446;13.452;2023-05-29T12:05:27;25.60;62.10
19646;DHT22;9971;52.446;13.452;2023-05-29T12:10:31;25.80;61.20
19646;DHT22;9971;52.446;13.452;2023-05-29T12:15:37;26.10;60.60
19646;DHT22;9971;52.446;13.452;2023-05-29T12:20:41;26.10;62.20
19646;DHT22;9971;52.446;13.452;2023-05-29T12:25:44;26.10;61.50
19646;DHT22;9971;52.446;13.452;2023-05-29T12:30:46;26.10;59.70
19646;DHT22;9971;52.446;13.452;2023-05-29T12:35:50;26.30;59.50
19646;DHT22;9971;52.446;13.452;2023-05-29T12:40:52;26.50;59.60
19646;DHT22;9971;52.446;13.452;2023-05-29T12:45:56;26.10;59.50
19646;DHT22;9971;52.446;13.452;2023-05-29T12:50:59;25.80;57.20
19646;DHT22;9971;52.446;13.452;2023-05-29T12:56:02;26.10;58.20
19646;DHT22;9971;52.446;13.452;2023-05-29T13:01:05;26.60;57.80
19646;DHT22;9971;52.446;13.452;2023-05-29T13:06:07;26.80;57.60
19646;DHT22;9971;52.446;13.452;2023-05-29T13:11:10;26.70;58.20
19646;DHT22;9971;52.446;13.452;2023-05-29T13:16:12;26.60;57.70
19646;DHT22;9971;52.446;13.452;2023-05-29T13:21:15;26.50;57.90
19646;DHT22;9971;52.446;13.452;2023-05-29T13:26:18;26.70;56.20
19646;DHT22;9971;52.446;13.452;2023-05-29T13:31:20;26.50;57.20
19646;DHT22;9971;52.446;13.452;2023-05-29T13:36:23;26.70;57.30
19646;DHT22;9971;52.446;13.452;2023-05-29T13:41:25;26.50;56.30
19646;DHT22;9971;52.446;13.452;2023-05-29T13:46:29;26.90;56.10
19646;DHT22;9971;52.446;13.452;2023-05-29T13:51:30;27.00;54.90
19646;DHT22;9971;52.446;13.452;2023-05-29T13:56:33;27.00;54.30
19646;DHT22;9971;52.446;13.452;2023-05-29T14:01:37;26.90;54.40
19646;DHT22;9971;52.446;13.452;2023-05-29T14:06:40;26.80;55.40
19646;DHT22;9971;52.446;13.452;2023-05-29T14:11:43;26.70;55.30
19646;DHT22;9971;52.446;13.452;2023-05-29T14:16:46;26.80;56.20
19646;DHT22;9971;52.446;13.452;2023-05-29T14:21:50;26.90;55.40
19646;DHT22;9971;52.446;13.452;2023-05-29T14:26:52;26.30;55.70
19646;DHT22;9971;52.446;13.452;2023-05-29T14:31:54;26.00;56.20
19646;DHT22;9971;52.446;13.452;2023-05-29T14:36:57;26.40;56.60
19646;DHT22;9971;52.446;13.452;2023-05-29T14:42:00;26.30;55.60
19646;DHT22;9971;52.446;13.452;2023-05-29T14:47:04;26.60;55.60
19646;DHT22;9971;52.446;13.452;2023-05-29T14:52:08;26.40;54.50
19646;DHT22;9971;52.446;13.452;2023-05-29T14:57:10;26.10;55.20
19646;DHT22;9971;52.446;13.452;2023-05-29T15:02:13;26.70;55.10
19646;DHT22;9971;52.446;13.452;2023-05-29T15:07:15;26.70;54.30
19646;DHT22;9971;52.446;13.452;2023-05-29T15:12:17;27.00;54.20
19646;DHT22;9971;52.446;13.452;2023-05-29T15:17:20;26.90;53.70
19646;DHT22;9971;52.446;13.452;2023-05-29T15:22:22;26.80;54.10
19646;DHT22;9971;52.446;13.452;2023-05-29T15:27:24;26.70;54.80
19646;DHT22;9971;52.446;13.452;2023-05-29T15:32:27;26.40;54.40
19646;DHT22;9971;52.446;13.452;2023-05-29T15:37:30;26.90;54.80
19646;DHT22;9971;52.446;13.452;2023-05-29T15:42:32;27.20;53.40
19646;DHT22;9971;52.446;13.452;2023-05-29T15:47:35;27.10;53.40
19646;DHT22;9971;52.446;13.452;2023-05-29T15:52:37;27.10;53.40
19646;DHT22;9971;52.446;13.452;2023-05-29T15:57:39;27.20;53.60
19646;DHT22;9971;52.446;13.452;2023-05-29T16:02:42;26.90;54.20
19646;DHT22;9971;52.446;13.452;2023-05-29T16:07:44;26.80;54.90
19646;DHT22;9971;52.446;13.452;2023-05-29T16:12:47;26.30;55.50
19646;DHT22;9971;52.446;13.452;2023-05-29T16:17:51;26.30;54.90
19646;DHT22;9971;52.446;13.452;2023-05-29T16:22:53;26.30;55.50
19646;DHT22;9971;52.446;13.452;2023-05-29T16:27:55;26.20;56.00
19646;DHT22;9971;52.446;13.452;2023-05-29T16:32:58;26.40;55.10
19646;DHT22;9971;52.446;13.452;2023-05-29T16:38:00;26.50;54.30
19646;DHT22;9971;52.446;13.452;2023-05-29T16:43:03;26.00;54.90
19646;DHT22;9971;52.446;13.452;2023-05-29T16:48:06;25.80;55.00
19646;DHT22;9971;52.446;13.452;2023-05-29T16:53:09;26.10;55.80
19646;DHT22;9971;52.446;13.452;2023-05-29T16:58:11;26.10;55.80
19646;DHT22;9971;52.446;13.452;2023-05-29T17:03:13;26.20;55.00
19646;DHT22;9971;52.446;13.452;2023-05-29T17:08:16;26.00;54.90
19646;DHT22;9971;52.446;13.452;2023-05-29T17:13:19;25.80;55.40
19646;DHT22;9971;52.446;13.452;2023-05-29T17:18:22;25.60;55.90
19646;DHT22;9971;52.446;13.452;2023-05-29T17:23:24;25.50;55.60
19646;DHT22;9971;52.446;13.452;2023-05-29T17:28:27;25.30;55.20
19646;DHT22;9971;52.446;13.452;2023-05-29T17:33:30;25.20;55.70
19646;DHT22;9971;52.446;13.452;2023-05-29T17:38:32;24.80;56.40
19646;DHT22;9971;52.446;13.452;2023-05-29T17:43:35;24.50;55.20
19646;DHT22;9971;52.446;13.452;2023-05-29T17:48:38;24.10;54.30
19646;DHT22;9971;52.446;13.452;2023-05-29T17:53:41;23.80;54.70
19646;DHT22;9971;52.446;13.452;2023-05-29T17:58:43;23.50;54.50
19646;DHT22;9971;52.446;13.452;2023-05-29T18:03:45;23.30;54.90
19646;DHT22;9971;52.446;13.452;2023-05-29T18:08:48;23.00;53.90
19646;DHT22;9971;52.446;13.452;2023-05-29T18:13:51;22.80;53.70
19646;DHT22;9971;52.446;13.452;2023-05-29T18:18:54;22.50;53.20
19646;DHT22;9971;52.446;13.452;2023-05-29T18:23:58;22.20;53.10
19646;DHT22;9971;52.446;13.452;2023-05-29T18:29:01;22.00;53.70
19646;DHT22;9971;52.446;13.452;2023-05-29T18:34:03;21.90;54.50
19646;DHT22;9971;52.446;13.452;2023-05-29T18:39:06;21.60;55.50
19646;DHT22;9971;52.446;13.452;2023-05-29T18:44:08;21.50;57.00
19646;DHT22;9971;52.446;13.452;2023-05-29T18:49:11;21.40;57.70
19646;DHT22;9971;52.446;13.452;2023-05-29T18:54:13;21.20;58.60
19646;DHT22;9971;52.446;13.452;2023-05-29T18:59:17;21.00;59.60
19646;DHT22;9971;52.446;13.452;2023-05-29T19:04:20;20.80;60.00
19646;DHT22;9971;52.446;13.452;2023-05-29T19:09:22;20.70;61.00
19646;DHT22;9971;52.446;13.452;2023-05-29T19:14:25;20.50;59.80
19646;DHT22;9971;52.446;13.452;2023-05-29T19:19:27;20.30;59.30
19646;DHT22;9971;52.446;13.452;2023-05-29T19:24:30;20.20;59.20
19646;DHT22;9971;52.446;13.452;2023-05-29T19:29:33;20.10;59.20
19646;DHT22;9971;52.446;13.452;2023-05-29T19:34:36;20.00;59.80
19646;DHT22;9971;52.446;13.452;2023-05-29T19:39:38;19.90;59.40
19646;DHT22;9971;52.446;13.452;2023-05-29T19:44:40;19.80;60.20
19646;DHT22;9971;52.446;13.452;2023-05-29T19:49:43;19.70;61.70
19646;DHT22;9971;52.446;13.452;2023-05-29T19:54:45;19.50;61.70
19646;DHT22;9971;52.446;13.452;2023-05-29T19:59:47;19.50;62.10
19646;DHT22;9971;52.446;13.452;2023-05-29T20:04:50;19.30;62.60
19646;DHT22;9971;52.446;13.452;2023-05-29T20:09:53;19.20;63.00
19646;DHT22;9971;52.446;13.452;2023-05-29T20:14:55;19.20;63.40
19646;DHT22;9971;52.446;13.452;2023-05-29T20:19:57;19.10;62.60
19646;DHT22;9971;52.446;13.452;2023-05-29T20:25:03;19.00;63.90
19646;DHT22;9971;52.446;13.452;2023-05-29T20:30:10;18.90;65.00
19646;DHT22;9971;52.446;13.452;2023-05-29T20:35:14;18.80;64.30
19646;DHT22;9971;52.446;13.452;2023-05-29T20:40:17;18.70;64.30
19646;DHT22;9971;52.446;13.452;2023-05-29T20:50:37;18.60;64.20
19646;DHT22;9971;52.446;13.452;2023-05-29T21:01:24;18.40;65.40
19646;DHT22;9971;52.446;13.452;2023-05-29T21:06:25;18.30;65.60
19646;DHT22;9971;52.446;13.452;2023-05-29T21:11:28;18.20;66.70
19646;DHT22;9971;52.446;13.452;2023-05-29T21:16:30;18.10;66.50
19646;DHT22;9971;52.446;13.452;2023-05-29T21:21:32;18.00;67.10
19646;DHT22;9971;52.446;13.452;2023-05-29T21:26:36;18.00;67.10
19646;DHT22;9971;52.446;13.452;2023-05-29T21:31:39;17.80;67.80
19646;DHT22;9971;52.446;13.452;2023-05-29T21:36:44;17.70;69.60
19646;DHT22;9971;52.446;13.452;2023-05-29T21:41:49;17.60;70.00
19646;DHT22;9971;52.446;13.452;2023-05-29T21:46:53;17.50;70.00
19646;DHT22;9971;52.446;13.452;2023-05-29T21:51:59;17.40;71.00
19646;DHT22;9971;52.446;13.452;2023-05-29T21:57:02;17.20;71.20
19646;DHT22;9971;52.446;13.452;2023-05-29T22:02:04;17.20;71.90
19646;DHT22;9971;52.446;13.452;2023-05-29T22:07:07;17.00;73.10
19646;DHT22;9971;52.446;13.452;2023-05-29T22:12:09;16.90;73.40
19646;DHT22;9971;52.446;13.452;2023-05-29T22:17:12;16.80;74.30
19646;DHT22;9971;52.446;13.452;2023-05-29T22:22:14;16.80;74.80
19646;DHT22;9971;52.446;13.452;2023-05-29T22:27:16;16.60;76.00
19646;DHT22;9971;52.446;13.452;2023-05-29T22:32:19;16.60;76.20
19646;DHT22;9971;52.446;13.452;2023-05-29T22:37:21;16.50;77.20
19646;DHT22;9971;52.446;13.452;2023-05-29T22:42:24;16.40;77.90
19646;DHT22;9971;52.446;13.452;2023-05-29T22:47:26;16.30;78.90
19646;DHT22;9971;52.446;13.452;2023-05-29T22:52:30;16.30;79.20
19646;DHT22;9971;52.446;13.452;2023-05-29T22:57:34;16.20;80.40
19646;DHT22;9971;52.446;13.452;2023-05-29T23:02:36;16.10;80.50
19646;DHT22;9971;52.446;13.452;2023-05-29T23:07:39;16.00;81.90
19646;DHT22;9971;52.446;13.452;2023-05-29T23:12:42;15.90;82.50
19646;DHT22;9971;52.446;13.452;2023-05-29T23:17:44;15.90;83.50
19646;DHT22;9971;52.446;13.452;2023-05-29T23:22:47;15.90;84.50
19646;DHT22;9971;52.446;13.452;2023-05-29T23:27:50;15.80;86.20
19646;DHT22;9971;52.446;13.452;2023-05-29T23:32:52;15.70;86.70
19646;DHT22;9971;52.446;13.452;2023-05-29T23:37:55;15.60;88.10
19646;DHT22;9971;52.446;13.452;2023-05-29T23:42:59;15.50;89.60
19646;DHT22;9971;52.446;13.452;2023-05-29T23:48:01;15.40;90.60
19646;DHT22;9971;52.446;13.452;2023-05-29T23:53:04;15.30;91.40
19646;DHT22;9971;52.446;13.452;2023-05-29T23:58:06;15.20;91.60
